EDT,Max TemperatureF,Mean TemperatureF,Min TemperatureF,Max Dew PointF,MeanDew PointF,Min DewpointF,Max Humidity, Mean Humidity, Min Humidity, Max Sea Level PressureIn, Mean Sea Level PressureIn, Min Sea Level PressureIn, Max VisibilityMiles, Mean VisibilityMiles, Min VisibilityMiles, Max Wind SpeedMPH, Mean Wind SpeedMPH, Max Gust SpeedMPH,PrecipitationIn, CloudCover, Events, WindDirDegrees
2013-3-1,45,37,29,28,25,22,78,62,45,29.91,29.86,29.82,10,10,10,13,6,20,0.00,7,,292
2013-3-2,45,39,32,25,20,15,64,52,39,29.92,29.88,29.81,10,10,10,18,7,22,0.00,6,,328
2013-3-3,46,37,27,18,16,12,63,48,33,29.98,29.92,29.85,10,10,10,21,9,26,0.00,3,,305
2013-3-4,52,36,20,18,12,8,67,42,17,30.10,30.04,29.98,10,10,10,16,6,22,0.00,0,,286
2013-3-5,52,41,30,41,36,20,96,65,34,30.06,29.85,29.61,10,6,2,13,3,17,0.42,7,Rain,81
2013-3-6,48,41,34,37,29,24,92,69,45,30.05,29.75,29.57,10,9,2,29,14,40,0.30,7,Rain-Snow,318
2013-3-7,50,43,35,28,25,22,64,52,39,30.24,30.15,30.05,10,10,10,21,11,29,0.00,2,,320
2013-3-8,56,44,32,24,23,20,64,45,26,30.30,30.23,30.17,10,10,10,21,10,29,0.00,1,,317
2013-3-9,63,46,28,29,25,22,72,46,20,30.34,30.29,30.24,10,10,10,9,3,39,0.00,0,,343
2013-3-10,69,49,28,30,26,20,85,53,21,30.31,30.24,30.18,10,10,10,8,2,,0.00,0,,174
2013-3-11,67,53,38,52,38,19,71,49,26,30.19,30.06,29.88,10,10,10,14,5,21,0.01,4,Rain,158
2013-3-12,66,53,40,57,49,27,93,64,34,29.97,29.80,29.71,10,8,2,17,8,21,0.72,6,Rain,248
2013-3-13,54,41,28,32,24,15,92,63,33,30.14,30.03,29.96,10,10,9,23,9,36,T,2,Rain,282
2013-3-14,52,40,28,17,15,12,53,37,21,30.23,30.16,30.11,10,10,10,18,9,30,0.00,1,,297
2013-3-15,64,46,27,32,25,15,69,50,30,30.16,30.02,29.87,10,10,10,22,9,29,0.00,0,,240
2013-3-16,79,59,39,52,42,32,83,57,30,29.84,29.74,29.59,10,10,8,25,7,35,T,1,Rain,232
2013-3-17,60,49,38,50,40,35,96,83,70,30.20,30.05,29.82,10,8,2,18,9,24,0.03,7,Rain,62
2013-3-18,40,38,36,37,35,33,92,89,85,30.21,30.08,29.89,10,5,2,15,7,18,0.06,8,Rain,57
2013-3-19,67,52,36,40,27,-2,92,52,11,30.02,29.87,29.81,10,10,6,26,10,37,0.00,4,,277
2013-3-20,57,43,29,20,11,0,41,28,14,30.07,29.94,29.76,10,10,10,24,7,38,0.00,2,,262
2013-3-21,47,38,29,25,14,7,52,40,27,29.99,29.83,29.74,10,10,10,23,12,29,0.00,3,,314
2013-3-22,52,37,21,17,12,11,68,44,19,30.07,30.00,29.94,10,10,10,17,6,17,0.00,0,,265
2013-3-23,57,42,27,32,24,15,76,52,28,30.05,29.98,29.89,10,10,10,10,1,14,0.00,4,,224
2013-3-24,39,36,32,34,31,27,96,80,64,29.92,29.74,29.57,10,6,2,17,8,22,0.66,7,Rain-Snow,42
2013-3-25,49,41,33,36,29,20,96,67,37,29.78,29.60,29.55,10,8,1,29,9,38,0.05,7,Rain-Snow,271
2013-3-26,51,41,31,26,24,23,69,54,38,30.10,29.93,29.80,10,10,10,18,8,24,0.00,5,,289
2013-3-27,52,40,27,25,22,18,75,52,29,30.22,30.17,30.11,10,10,10,23,9,30,0.00,0,,291
2013-3-28,56,42,27,24,22,20,75,51,26,30.28,30.21,30.16,10,10,10,20,9,25,0.00,0,,312
2013-3-29,62,44,26,27,24,22,81,52,22,30.32,30.24,30.14,10,10,10,16,4,23,0.00,2,,248
2013-3-30,67,50,32,33,28,24,82,52,22,30.24,30.15,30.06,10,10,10,9,2,,0.00,2,,317
2013-3-31,65,57,48,53,48,35,93,76,59,30.06,29.89,29.78,10,7,2,17,6,23,0.30,6,Rain,234